Lebanon, OH

3:42 AM EST on February 01, 2015 (GMT -0500)
AIRNow Lebanon OH OHEPAOAPC | Change Station
CLOSE
Current Station
Personal Weather Station
Location: Otterbien Home, OH
Elevation: 980 ft
Nearby Weather Stations
Active Advisory: Winter Weather Advisory

Elev 980 ft 39.43 °N, 84.20 °W | Updated 201 days ago

Sleet
Sleet
32 °F
Feels Like 27 °F
N
6
Wind Variable Wind from SE
Gusts 6 mph

Today
High -- | Low -- °F
--% Chance of Precip.
Yesterday
High -- | Low -- °F
Precip. -- in
7:44 AM 5:56 PM
Waxing Gibbous, 94% visible
Pressure 30.15 in
Visibility 5.0 miles
Clouds Few 700 ft
Scattered Clouds 2200 ft
Overcast 6500 ft
Windchill 27 °F
Dew Point 28 °F
Humidity 85%
Rainfall -9999.00 in
Snow Depth Not available.
UV 0 out of 12
Pollen .10 out of 12
Air Quality Not available.
Flu Activity Not available.
SPECI KMGY 010810Z AUTO 16003KT 5SM BR FEW007 SCT022 OVC065 00/M01 A3015 RMK AO2 T00001006

More Conditions Fewer Conditions

Pressure 30.15 in
Visibility 5.0 miles
Clouds Few 700 ft
Scattered Clouds 2200 ft
Overcast 6500 ft
Windchill 27 °F
Dew Point 28 °F
Humidity 85%
Rainfall -9999.00 in
Snow Depth Not available.
UV 0 out of 12
Pollen .10 out of 12
Air Quality Not available.
Flu Activity Not available.
SPECI KMGY 010810Z AUTO 16003KT 5SM BR FEW007 SCT022 OVC065 00/M01 A3015 RMK AO2 T00001006

More Conditions Fewer Conditions

10-Day Weather Forecast

Almanac

Astronomy

Feb. 01, 2015 Rise Set
Actual Time
Civil Twilight
Nautical Twilight
Astronomical Twilight
Moon
Length of Visible Light
Length of Day
Tomorrow will be .
, % of the Moon is Illuminated

Today's Extremes

State Highs State Lows

Community

WunderPhotos

Upload Photos

1,792,338 photos uploaded!

WunderBlogs® & News

Nearby

Air Quality

  Air Quality AQ Index Pollutant
Not available.

Snow Depth

Station Depth Elevation

Earthquake Activity

City Distance Mag. Time & Date
Minimum magnitude displayed is 2.5.

Coastal Water Temperatures

Place Temperature

Nearby Weather Stations